createdAt,value
2023-08-23T05:01:07.718Z,89.66
2023-08-23T05:03:38.736Z,89.29
2023-08-23T05:06:05.847Z,88.79
2023-08-23T05:08:34.996Z,88.49
2023-08-23T05:11:05.802Z,87.88
2023-08-23T05:13:33.503Z,88.69
2023-08-23T05:16:01.756Z,89.05
2023-08-23T05:18:28.966Z,88.48
2023-08-23T05:20:57.334Z,88.26
2023-08-23T05:23:24.438Z,88.80
2023-08-23T05:25:53.034Z,88.10
2023-08-23T05:28:23.311Z,88.02
2023-08-23T05:30:52.912Z,88.09
2023-08-23T05:33:23.913Z,87.79
2023-08-23T05:35:50.652Z,87.00
2023-08-23T05:38:17.603Z,86.79
2023-08-23T05:40:47.017Z,87.05
2023-08-23T05:43:14.261Z,86.10
2023-08-23T05:45:40.999Z,86.75
2023-08-23T05:48:07.889Z,86.66
2023-08-23T05:50:34.661Z,85.81
2023-08-23T05:53:01.627Z,85.87
2023-08-23T05:55:28.294Z,85.76
2023-08-23T05:57:54.941Z,85.59
2023-08-23T06:00:22.297Z,86.23
2023-08-23T06:02:49.189Z,84.73
2023-08-23T06:05:16.008Z,85.03
2023-08-23T06:07:42.923Z,84.71
2023-08-23T06:10:10.781Z,85.42
2023-08-23T06:12:44.868Z,84.47
2023-08-23T06:15:11.636Z,84.29
2023-08-23T06:17:38.344Z,84.74
2023-08-23T06:20:06.072Z,84.04
2023-08-23T06:22:32.816Z,84.45
2023-08-23T06:24:59.484Z,83.19
2023-08-23T06:27:26.119Z,83.74
2023-08-23T06:29:52.780Z,83.58
2023-08-23T06:32:20.278Z,83.64
2023-08-23T06:34:47.007Z,83.83
2023-08-23T06:37:13.726Z,83.01
2023-08-23T06:39:40.625Z,83.16
2023-08-23T06:42:07.580Z,82.13
2023-08-23T06:44:34.362Z,81.30
2023-08-23T06:47:01.105Z,81.31
2023-08-23T06:49:27.763Z,81.36
2023-08-23T06:51:54.409Z,81.54
2023-08-23T06:54:21.179Z,80.46
2023-08-23T06:56:47.995Z,80.19
2023-08-23T06:59:14.619Z,80.99
2023-08-23T07:01:41.414Z,80.71
2023-08-23T07:04:08.151Z,80.55
2023-08-23T07:06:34.872Z,79.06
2023-08-23T07:09:01.529Z,79.41
2023-08-23T07:11:28.250Z,79.92
2023-08-23T07:13:54.859Z,78.71
2023-08-23T07:16:21.629Z,78.49
2023-08-23T07:18:48.355Z,78.47
2023-08-23T07:21:16.450Z,78.42
2023-08-23T07:23:43.708Z,78.31
2023-08-23T07:26:10.596Z,78.28
2023-08-23T07:28:37.461Z,77.28
2023-08-23T07:31:04.731Z,78.00
2023-08-23T07:33:31.486Z,77.79
2023-08-23T07:35:59.516Z,77.70
2023-08-23T07:38:26.365Z,77.57
2023-08-23T07:41:06.962Z,77.10
2023-08-23T07:43:33.767Z,76.50
2023-08-23T07:46:01.873Z,76.82
2023-08-23T07:48:29.075Z,76.21
2023-08-23T07:50:57.914Z,75.62
2023-08-23T07:53:24.988Z,74.37
2023-08-23T07:55:51.779Z,74.79
2023-08-23T07:58:18.728Z,75.26
2023-08-23T08:00:45.463Z,74.08
2023-08-23T08:03:12.401Z,73.23
2023-08-23T08:05:39.507Z,72.99
2023-08-23T08:08:09.779Z,72.30
2023-08-23T08:10:37.737Z,72.69
2023-08-23T08:13:04.944Z,70.99
2023-08-23T08:15:32.966Z,71.88
2023-08-23T08:18:00.109Z,70.08
2023-08-23T08:20:27.306Z,71.25
2023-08-23T08:22:54.163Z,70.88
2023-08-23T08:25:21.416Z,70.23
2023-08-23T08:27:48.845Z,69.81
2023-08-23T08:30:16.187Z,68.88
2023-08-23T08:32:43.047Z,68.54
2023-08-23T08:35:10.434Z,67.06
2023-08-23T08:37:38.209Z,65.64
2023-08-23T08:40:05.558Z,63.47
2023-08-23T08:42:33.183Z,60.03
2023-08-23T08:45:00.394Z,58.85
2023-08-23T08:47:27.334Z,60.57
2023-08-23T08:49:54.168Z,59.30
2023-08-23T08:52:22.053Z,59.36
2023-08-23T08:54:49.795Z,60.53
2023-08-23T08:57:16.644Z,59.62
2023-08-23T08:59:45.102Z,55.94
2023-08-23T09:02:15.854Z,56.32
2023-08-23T09:04:47.533Z,57.08
2023-08-23T09:07:14.683Z,56.15
2023-08-23T09:09:42.798Z,56.13
2023-08-23T09:12:09.607Z,56.31
2023-08-23T09:14:36.337Z,57.68
2023-08-23T09:17:03.294Z,55.62
2023-08-23T09:19:30.010Z,53.79
2023-08-23T09:21:56.928Z,54.73
2023-08-23T09:24:23.607Z,55.13
2023-08-23T09:26:50.410Z,54.89
2023-08-23T09:29:20.002Z,54.50
2023-08-23T09:31:46.750Z,54.09
2023-08-23T09:34:15.812Z,54.69
2023-08-23T09:36:43.109Z,53.31
2023-08-23T09:39:11.367Z,53.85
2023-08-23T09:41:55.330Z,54.36
2023-08-23T09:44:27.629Z,54.38
2023-08-23T09:46:55.235Z,54.50
2023-08-23T09:49:24.089Z,53.66
2023-08-23T09:51:54.101Z,54.56
2023-08-23T09:54:43.579Z,54.92
2023-08-23T09:57:20.154Z,54.40
2023-08-23T09:59:47.599Z,53.49
2023-08-23T10:02:17.596Z,53.69
2023-08-23T10:04:44.599Z,53.74
2023-08-23T11:12:34.142Z,45.75
2023-08-23T11:15:01.080Z,43.52
2023-08-23T11:17:27.782Z,43.94
2023-08-23T11:19:54.747Z,44.63
2023-08-23T11:22:21.533Z,45.02
2023-08-23T11:24:48.297Z,43.51
2023-08-23T11:27:15.174Z,45.34
2023-08-23T11:29:43.758Z,44.25
2023-08-23T11:32:13.276Z,45.22
2023-08-23T11:34:40.326Z,44.10
2023-08-23T11:37:10.932Z,44.22
2023-08-23T11:39:37.700Z,43.45
2023-08-23T11:42:04.653Z,42.72
2023-08-23T11:44:31.777Z,42.88
2023-08-23T11:46:59.504Z,43.75
2023-08-23T11:49:26.914Z,44.14
2023-08-23T11:51:55.010Z,43.82
2023-08-23T11:54:23.388Z,43.86
2023-08-23T11:56:50.181Z,42.31
2023-08-23T11:59:17.101Z,42.83
2023-08-23T12:01:44.641Z,42.47
2023-08-23T12:04:12.828Z,42.39
2023-08-23T12:06:42.984Z,42.55
2023-08-23T12:09:11.864Z,42.42
2023-08-23T12:11:38.948Z,40.92
2023-08-23T12:14:07.635Z,40.12
2023-08-23T12:16:35.415Z,40.37
2023-08-23T12:19:02.567Z,41.10
2023-08-23T12:21:32.172Z,41.30
2023-08-23T12:23:58.882Z,39.93
2023-08-23T12:26:25.637Z,39.64
2023-08-23T12:28:52.739Z,39.71
2023-08-23T12:31:20.553Z,39.42
2023-08-23T12:33:47.827Z,38.51
2023-08-23T12:36:15.856Z,41.10
2023-08-23T12:38:43.015Z,38.90
2023-08-23T12:41:09.911Z,39.71
2023-08-23T12:43:36.613Z,38.33
2023-08-23T12:46:03.626Z,36.64
2023-08-23T12:48:30.362Z,36.54
2023-08-23T12:50:57.188Z,35.48
2023-08-23T12:53:23.920Z,36.62
2023-08-23T12:55:54.604Z,37.68
2023-08-23T12:58:22.296Z,37.16
2023-08-23T13:00:49.212Z,37.81
2023-08-23T13:03:16.057Z,35.78
2023-08-23T13:05:42.773Z,35.86
2023-08-23T13:08:09.450Z,35.84
2023-08-23T13:10:36.152Z,35.50
2023-08-23T13:13:02.928Z,35.47
2023-08-23T13:15:29.693Z,35.67
2023-08-23T13:17:57.239Z,35.87
2023-08-23T13:20:25.909Z,36.76
2023-08-23T13:22:53.324Z,35.75
2023-08-23T13:25:20.082Z,36.89
2023-08-23T13:27:47.032Z,36.60
2023-08-23T13:30:13.993Z,36.15
2023-08-23T13:32:40.681Z,36.70
2023-08-23T13:35:07.677Z,35.53
2023-08-23T13:37:35.882Z,34.98
2023-08-23T13:40:06.116Z,34.29
2023-08-23T13:42:33.537Z,34.09
2023-08-23T13:45:00.215Z,33.73
2023-08-23T13:47:26.882Z,34.27
2023-08-23T13:49:53.632Z,33.94
2023-08-23T13:52:20.289Z,32.99
2023-08-23T13:54:46.927Z,32.91
2023-08-23T13:57:14.181Z,34.66
2023-08-23T13:59:41.105Z,32.47
2023-08-23T14:02:07.955Z,32.01
2023-08-23T14:04:38.036Z,32.94
2023-08-23T14:07:05.986Z,33.25
2023-08-23T14:09:33.271Z,30.94
2023-08-23T14:11:59.897Z,30.89
2023-08-23T14:14:27.181Z,31.17
2023-08-23T14:16:56.713Z,31.43
2023-08-23T14:19:25.330Z,29.97
2023-08-23T14:21:51.993Z,30.80
2023-08-23T14:24:18.734Z,31.40
2023-08-23T14:26:45.469Z,29.07
2023-08-23T14:29:12.340Z,28.68
2023-08-23T14:31:39.306Z,28.93
2023-08-23T14:34:06.180Z,27.75
2023-08-23T14:36:32.795Z,27.51
2023-08-23T14:39:00.823Z,25.58
2023-08-23T14:41:27.710Z,27.00
2023-08-23T14:43:54.347Z,26.63
2023-08-23T14:46:21.185Z,26.64
2023-08-23T14:48:47.956Z,25.46
2023-08-23T14:51:14.534Z,25.25
2023-08-23T14:53:43.276Z,25.41
2023-08-23T14:56:10.035Z,25.62
2023-08-23T14:58:36.660Z,24.84
2023-08-23T15:01:03.568Z,24.08
2023-08-23T15:03:30.324Z,23.44
2023-08-23T15:05:57.143Z,23.01
2023-08-23T15:08:25.560Z,23.64
2023-08-23T15:10:56.466Z,22.81
2023-08-23T15:13:23.370Z,23.37
2023-08-23T15:16:03.443Z,22.60
2023-08-23T15:18:30.230Z,23.29
2023-08-23T15:20:57.011Z,24.27
2023-08-23T15:23:23.956Z,22.57
2023-08-23T15:25:51.342Z,22.46
2023-08-23T15:28:18.090Z,23.54
2023-08-23T15:30:44.738Z,23.27
2023-08-23T15:33:11.474Z,23.57
2023-08-23T15:35:38.212Z,23.64
2023-08-23T15:38:05.146Z,23.76
2023-08-23T15:40:31.836Z,22.66
2023-08-23T15:42:58.431Z,23.15
2023-08-23T15:45:25.118Z,24.88
2023-08-23T15:47:54.563Z,26.13
2023-08-23T15:50:23.109Z,26.00
2023-08-23T15:52:49.665Z,26.56
2023-08-23T15:55:16.254Z,26.16
2023-08-23T15:57:43.021Z,26.55
2023-08-23T16:00:11.087Z,26.94
2023-08-23T16:02:40.836Z,26.90
2023-08-23T16:05:07.617Z,27.11
2023-08-23T16:07:34.355Z,27.84
2023-08-23T16:10:02.170Z,28.00
2023-08-23T16:12:28.972Z,27.95
2023-08-23T16:14:55.652Z,27.87
2023-08-23T16:17:22.355Z,27.01
2023-08-23T16:19:49.220Z,28.16
2023-08-23T16:22:15.841Z,28.63
2023-08-23T16:24:43.254Z,28.42
2023-08-23T16:27:09.983Z,28.44
2023-08-23T16:29:36.731Z,29.63
2023-08-23T16:32:03.486Z,30.36
2023-08-23T16:34:30.402Z,31.37
2023-08-23T16:36:57.124Z,32.35
2023-08-23T16:39:23.791Z,32.81
2023-08-23T16:41:52.619Z,34.10
2023-08-23T16:44:20.456Z,34.41
2023-08-23T16:46:47.774Z,35.44
2023-08-23T16:49:14.478Z,35.78
2023-08-23T16:51:41.336Z,36.05
2023-08-23T16:54:08.023Z,36.27
2023-08-23T16:56:35.811Z,37.57
2023-08-23T16:59:02.660Z,36.85
2023-08-23T17:01:29.404Z,37.07
2023-08-23T17:03:56.161Z,37.45
2023-08-23T17:06:22.799Z,37.70
2023-08-23T17:08:49.956Z,37.88
2023-08-23T17:11:16.872Z,37.97
2023-08-23T17:13:43.626Z,38.50
2023-08-23T17:16:10.559Z,39.43
2023-08-23T17:18:37.353Z,40.12
2023-08-23T17:21:04.062Z,40.09
2023-08-23T17:23:31.212Z,39.81
2023-08-23T17:25:58.143Z,40.61
2023-08-23T17:28:24.915Z,40.26
2023-08-23T17:30:52.563Z,40.75
2023-08-23T17:33:21.326Z,41.42
2023-08-23T17:35:48.456Z,41.69
2023-08-23T17:38:15.403Z,42.11
2023-08-23T17:40:42.108Z,41.92
2023-08-23T17:43:09.449Z,42.59
2023-08-23T17:45:36.519Z,42.90
2023-08-23T17:48:04.119Z,42.91
2023-08-23T17:50:30.893Z,43.18
2023-08-23T17:52:59.592Z,43.66
2023-08-23T17:55:26.501Z,43.75
2023-08-23T17:57:53.187Z,44.55
2023-08-23T18:00:20.920Z,44.65
2023-08-23T18:02:47.844Z,45.18
2023-08-23T18:05:14.821Z,45.06
2023-08-23T18:07:41.553Z,45.48
2023-08-23T18:10:09.432Z,45.76
2023-08-23T18:12:36.432Z,46.12
2023-08-23T18:15:04.238Z,46.83
2023-08-23T18:17:30.950Z,47.18
2023-08-23T18:19:58.633Z,48.44
2023-08-23T18:22:25.303Z,49.19
2023-08-23T18:24:52.084Z,48.51
2023-08-23T18:27:18.718Z,49.07
2023-08-23T18:29:45.343Z,50.26
2023-08-23T18:32:13.052Z,50.15
2023-08-23T18:37:22.989Z,51.71
2023-08-23T18:39:49.686Z,52.57
2023-08-23T18:42:18.929Z,52.33
2023-08-23T18:45:13.655Z,52.50
2023-08-23T18:48:30.761Z,53.15
2023-08-23T18:54:18.459Z,53.05
2023-08-23T18:55:09.799Z,53.46
2023-08-23T19:10:25.122Z,54.26
2023-08-23T19:12:51.993Z,54.52
2023-08-23T19:15:27.941Z,54.77
2023-08-23T19:17:54.701Z,55.20
2023-08-23T19:24:38.988Z,55.68
2023-08-23T19:27:05.776Z,55.71
2023-08-23T19:29:32.438Z,55.89
2023-08-23T19:32:04.688Z,56.17
2023-08-23T19:34:41.353Z,56.19
2023-08-23T19:37:38.939Z,56.18
2023-08-23T19:45:28.801Z,56.81
2023-08-23T19:52:22.903Z,57.18
2023-08-23T20:02:14.909Z,58.90
2023-08-23T20:04:41.847Z,58.88
2023-08-23T20:07:08.645Z,59.00
2023-08-23T20:09:35.341Z,58.68
2023-08-23T20:12:02.022Z,59.00
2023-08-23T20:18:53.128Z,59.81
2023-08-23T20:21:19.862Z,60.33
2023-08-23T20:31:16.281Z,61.12
2023-08-23T20:38:09.174Z,62.77
2023-08-23T20:49:44.322Z,63.50
2023-08-23T20:56:32.590Z,63.80
2023-08-23T20:58:59.947Z,64.50
2023-08-23T21:05:14.306Z,65.68
2023-08-23T21:07:41.030Z,65.61
2023-08-23T21:10:08.003Z,65.43
2023-08-23T21:12:35.414Z,65.55
2023-08-23T21:15:02.201Z,66.14
2023-08-23T21:20:10.125Z,66.12
2023-08-23T21:22:36.746Z,66.73
2023-08-23T21:33:29.538Z,68.23
2023-08-23T21:36:46.825Z,68.30
2023-08-23T21:39:16.343Z,68.74
2023-08-23T21:41:42.986Z,68.44
2023-08-23T21:44:09.674Z,68.82
2023-08-23T21:46:36.390Z,68.38
2023-08-23T21:49:05.563Z,69.14
2023-08-23T21:51:42.358Z,69.08
2023-08-23T21:54:23.638Z,69.06
2023-08-23T22:03:37.735Z,69.90
2023-08-23T22:06:07.311Z,69.77
2023-08-23T22:08:35.626Z,70.16
2023-08-23T22:11:03.324Z,70.24
2023-08-23T22:13:30.014Z,70.33
2023-08-23T22:15:56.907Z,70.13
2023-08-23T22:18:24.927Z,70.63
2023-08-23T22:20:54.815Z,70.64
2023-08-23T22:23:23.040Z,70.75
2023-08-23T22:25:50.066Z,72.60
2023-08-23T22:28:16.965Z,72.25
2023-08-23T22:30:43.799Z,73.30
2023-08-23T22:33:10.620Z,73.14
2023-08-23T22:35:38.375Z,73.33
2023-08-23T22:38:06.655Z,72.91
2023-08-23T22:40:36.940Z,73.09
2023-08-23T22:43:03.994Z,73.24
2023-08-23T22:45:31.775Z,74.11
2023-08-23T22:48:01.012Z,74.15
2023-08-23T22:50:28.459Z,74.35
2023-08-23T22:53:02.859Z,74.85
2023-08-23T22:55:31.453Z,74.33
2023-08-23T22:57:58.349Z,74.17
2023-08-23T23:03:33.384Z,74.19
2023-08-23T23:07:05.863Z,73.90
2023-08-23T23:13:33.243Z,74.52
2023-08-23T23:16:05.618Z,74.86
2023-08-23T23:18:36.987Z,75.03
2023-08-23T23:21:09.247Z,74.73
2023-08-23T23:23:43.430Z,74.68
2023-08-23T23:26:13.754Z,74.78
2023-08-23T23:28:46.720Z,74.77
2023-08-23T23:31:19.369Z,74.77
2023-08-23T23:33:46.244Z,74.48
2023-08-23T23:36:25.871Z,74.82
2023-08-23T23:39:00.619Z,74.72
2023-08-23T23:41:30.564Z,74.86
2023-08-23T23:44:07.676Z,74.84
2023-08-23T23:46:36.788Z,75.04
2023-08-23T23:49:03.493Z,74.88
2023-08-23T23:51:35.789Z,74.98
2023-08-23T23:54:04.650Z,75.49
2023-08-23T23:59:50.902Z,76.45
